createdAt,value
2023-04-09T00:02:05.401Z,99.14
2023-04-09T00:04:32.762Z,99.64
2023-04-09T00:07:00.258Z,99.74
2023-04-09T00:09:27.572Z,99.18
2023-04-09T00:11:56.207Z,99.63
2023-04-09T00:14:23.486Z,99.88
2023-04-09T00:16:52.160Z,99.89
2023-04-09T00:22:17.842Z,99.31
2023-04-09T00:24:45.194Z,98.69
2023-04-09T00:27:14.034Z,98.85
2023-04-09T00:29:41.489Z,99.02
2023-04-09T00:32:10.296Z,99.35
2023-04-09T00:34:38.935Z,99.66
2023-04-09T00:37:06.437Z,99.42
2023-04-09T00:39:33.765Z,99.42
2023-04-09T00:42:02.655Z,99.05
2023-04-09T00:44:30.801Z,97.59
2023-04-09T00:46:58.085Z,97.70
2023-04-09T00:52:15.504Z,99.01
2023-04-09T00:54:42.809Z,98.53
2023-04-09T00:57:11.186Z,98.38
2023-04-09T00:59:38.574Z,98.60
2023-04-09T01:02:06.412Z,97.75
2023-04-09T01:04:33.792Z,98.03
2023-04-09T01:07:03.350Z,97.80
2023-04-09T01:09:34.160Z,98.34
2023-04-09T01:12:03.768Z,97.20
2023-04-09T01:14:33.541Z,97.60
2023-04-09T01:17:05.222Z,97.33
2023-04-09T01:19:38.655Z,97.75
2023-04-09T01:22:06.438Z,97.57
2023-04-09T01:24:38.060Z,98.14
2023-04-09T01:30:05.519Z,98.67
2023-04-09T01:32:33.579Z,98.03
2023-04-09T01:35:01.034Z,96.98
2023-04-09T01:37:28.384Z,96.74
2023-04-09T01:42:53.803Z,98.80
2023-04-09T01:45:22.578Z,98.08
2023-04-09T01:47:50.067Z,96.75
2023-04-09T01:50:17.590Z,97.19
2023-04-09T01:55:34.058Z,96.05
2023-04-09T01:58:01.367Z,97.62
2023-04-09T02:00:32.025Z,98.03
2023-04-09T02:03:00.557Z,96.99
2023-04-09T02:05:28.683Z,97.43
2023-04-09T02:07:56.870Z,97.45
2023-04-09T02:10:24.689Z,98.35
2023-04-09T02:12:52.388Z,98.49
2023-04-09T02:15:20.208Z,99.18
2023-04-09T02:20:47.074Z,97.85
2023-04-09T02:23:14.363Z,96.60
2023-04-09T02:28:30.765Z,97.42
2023-04-09T02:30:58.062Z,97.75
2023-04-09T02:33:26.726Z,97.59
2023-04-09T02:35:54.791Z,98.09
2023-04-09T02:38:22.196Z,100.00
2023-04-09T02:40:49.554Z,100.00
2023-04-09T02:46:05.891Z,100.00
2023-04-09T02:48:35.981Z,100.00
2023-04-09T02:51:05.784Z,100.00
2023-04-09T02:56:21.769Z,100.00
2023-04-09T02:58:53.796Z,100.00
2023-04-09T03:01:21.344Z,100.00
2023-04-09T03:03:50.287Z,100.00
2023-04-09T03:09:16.774Z,99.38
2023-04-09T03:11:44.137Z,99.52
2023-04-09T03:14:11.458Z,100.00
2023-04-09T03:16:38.755Z,99.79
2023-04-09T03:19:07.394Z,100.00
2023-04-09T03:21:37.559Z,100.00
2023-04-09T03:24:06.234Z,100.00
2023-04-09T03:26:36.263Z,100.00
2023-04-09T03:29:06.131Z,100.00
2023-04-09T03:31:33.803Z,100.00
2023-04-09T03:34:01.142Z,100.00
2023-04-09T03:36:31.500Z,100.00
2023-04-09T03:39:10.464Z,100.00
2023-04-09T03:41:42.230Z,100.00
2023-04-09T03:44:13.778Z,100.00
2023-04-09T03:47:19.037Z,100.00
2023-04-09T03:49:46.425Z,100.00
2023-04-09T03:52:22.876Z,100.00
2023-04-09T03:54:58.774Z,100.00
2023-04-09T03:57:27.198Z,100.00
2023-04-09T03:59:55.766Z,100.00
2023-04-09T04:02:26.686Z,100.00
2023-04-09T04:05:01.705Z,100.00
2023-04-09T04:07:35.277Z,100.00
2023-04-09T04:10:09.168Z,100.00
2023-04-09T04:12:36.513Z,100.00
2023-04-09T04:15:08.418Z,100.00
2023-04-09T04:17:44.722Z,100.00
2023-04-09T04:20:21.005Z,100.00
2023-04-09T04:23:07.131Z,100.00
2023-04-09T04:28:35.778Z,100.00
2023-04-09T04:34:02.794Z,100.00
2023-04-09T04:36:30.698Z,100.00
2023-04-09T04:38:59.361Z,100.00
2023-04-09T04:41:32.116Z,100.00
2023-04-09T04:44:22.360Z,100.00
2023-04-09T04:46:55.252Z,100.00
2023-04-09T04:49:22.693Z,100.00
2023-04-09T04:51:49.997Z,100.00
2023-04-09T04:54:19.142Z,100.00
2023-04-09T04:56:52.584Z,100.00
2023-04-09T04:59:38.514Z,100.00
2023-04-09T05:02:07.003Z,100.00
2023-04-09T05:04:44.238Z,100.00
2023-04-09T05:07:14.592Z,100.00
2023-04-09T05:09:50.515Z,100.00
2023-04-09T05:12:18.034Z,100.00
2023-04-09T05:14:49.202Z,100.00
2023-04-09T05:17:16.821Z,100.00
2023-04-09T05:19:46.190Z,100.00
2023-04-09T05:22:13.705Z,100.00
2023-04-09T05:24:41.045Z,100.00
2023-04-09T05:27:10.235Z,100.00
2023-04-09T05:29:37.525Z,100.00
2023-04-09T05:34:56.764Z,100.00
2023-04-09T05:37:25.594Z,100.00
2023-04-09T05:39:53.992Z,100.00
2023-04-09T05:42:22.646Z,100.00
2023-04-09T05:45:13.129Z,100.00
2023-04-09T05:47:48.060Z,100.00
2023-04-09T05:50:19.722Z,100.00
2023-04-09T05:52:49.104Z,100.00
2023-04-09T05:55:17.046Z,100.00
2023-04-09T05:57:50.011Z,100.00
2023-04-09T06:00:18.245Z,100.00
2023-04-09T06:02:46.926Z,100.00
2023-04-09T06:08:13.985Z,100.00
2023-04-09T06:10:41.532Z,100.00
2023-04-09T06:13:10.397Z,100.00
2023-04-09T06:15:38.506Z,100.00
2023-04-09T06:21:05.162Z,100.00
2023-04-09T06:23:32.869Z,100.00
2023-04-09T06:26:00.270Z,100.00
2023-04-09T06:28:28.871Z,100.00
2023-04-09T06:30:56.491Z,100.00
2023-04-09T06:33:24.264Z,100.00
2023-04-09T06:35:51.701Z,100.00
2023-04-09T06:38:19.018Z,100.00
2023-04-09T06:40:46.309Z,100.00
2023-04-09T06:43:13.623Z,100.00
2023-04-09T06:45:54.390Z,100.00
2023-04-09T06:48:21.710Z,100.00
2023-04-09T06:53:48.004Z,100.00
2023-04-09T06:56:15.582Z,100.00
2023-04-09T06:58:42.905Z,100.00
2023-04-09T07:01:13.100Z,100.00
2023-04-09T07:03:40.706Z,100.00
2023-04-09T07:09:06.750Z,100.00
2023-04-09T07:11:34.058Z,100.00
2023-04-09T07:19:31.190Z,99.81
2023-04-09T07:21:58.479Z,100.00
2023-04-09T07:24:25.826Z,100.00
2023-04-09T07:26:53.365Z,100.00
2023-04-09T07:29:22.218Z,100.00
2023-04-09T07:31:49.731Z,100.00
2023-04-09T07:34:17.062Z,100.00
2023-04-09T07:36:45.748Z,100.00
2023-04-09T07:39:13.059Z,100.00
2023-04-09T07:56:44.048Z,80.03
2023-04-09T07:59:11.818Z,79.57
2023-04-09T08:01:39.281Z,81.47
2023-04-09T08:04:07.533Z,81.39
2023-04-09T08:06:35.971Z,82.56
2023-04-09T08:09:03.586Z,84.22
2023-04-09T08:11:31.114Z,83.84
2023-04-09T08:14:02.002Z,84.31
2023-04-09T08:19:19.977Z,84.27
2023-04-09T08:21:48.733Z,83.99
2023-04-09T08:24:16.711Z,84.57
2023-04-09T08:26:44.377Z,84.63
2023-04-09T08:29:13.930Z,84.51
2023-04-09T08:31:41.793Z,84.56
2023-04-09T08:34:09.460Z,85.08
2023-04-09T08:36:37.076Z,84.95
2023-04-09T08:39:04.728Z,85.42
2023-04-09T08:41:32.342Z,84.43
2023-04-09T08:44:00.695Z,83.94
2023-04-09T08:49:24.261Z,85.25
2023-04-09T08:51:51.708Z,85.91
2023-04-09T08:54:20.071Z,85.66
2023-04-09T08:56:47.803Z,84.95
2023-04-09T08:59:17.954Z,84.96
2023-04-09T09:01:46.631Z,85.13
2023-04-09T09:04:14.185Z,84.73
2023-04-09T09:06:43.022Z,84.33
2023-04-09T09:09:12.003Z,84.53
2023-04-09T09:11:40.789Z,84.43
2023-04-09T09:14:10.108Z,84.46
2023-04-09T09:16:42.715Z,84.15
2023-04-09T09:19:10.472Z,84.46
2023-04-09T09:21:38.566Z,84.62
2023-04-09T09:24:17.592Z,84.71
2023-04-09T09:26:45.200Z,84.24
2023-04-09T09:29:12.669Z,84.46
2023-04-09T09:31:47.261Z,84.40
2023-04-09T09:34:15.868Z,84.53
2023-04-09T09:36:43.570Z,84.38
2023-04-09T09:39:13.267Z,84.14
2023-04-09T09:41:41.614Z,84.18
2023-04-09T09:44:10.308Z,84.21
2023-04-09T09:47:03.960Z,84.01
2023-04-09T09:49:31.556Z,84.13
2023-04-09T09:52:02.661Z,84.56
2023-04-09T09:57:40.314Z,84.46
2023-04-09T10:00:09.341Z,83.95
2023-04-09T10:02:41.881Z,83.73
2023-04-09T10:05:09.930Z,83.81
2023-04-09T10:07:38.455Z,83.34
2023-04-09T10:10:08.980Z,83.35
2023-04-09T10:12:36.433Z,83.41
2023-04-09T10:18:05.075Z,83.23
2023-04-09T10:23:34.012Z,82.57
2023-04-09T10:26:03.044Z,82.87
2023-04-09T10:28:31.006Z,83.02
2023-04-09T10:30:58.752Z,82.89
2023-04-09T10:36:27.714Z,82.12
2023-04-09T10:38:55.187Z,82.20
2023-04-09T10:41:28.446Z,81.92
2023-04-09T10:43:55.875Z,82.13
2023-04-09T10:46:27.515Z,82.11
2023-04-09T10:49:11.678Z,81.84
2023-04-09T10:51:39.432Z,81.66
2023-04-09T10:54:07.064Z,81.53
2023-04-09T11:01:54.708Z,55.59
2023-04-09T11:05:29.117Z,53.83
2023-04-09T11:10:36.755Z,48.76
2023-04-09T11:18:18.115Z,54.71
2023-04-09T11:24:19.679Z,44.15
2023-04-09T11:31:40.370Z,48.92
2023-04-09T11:34:11.115Z,49.27
2023-04-09T11:36:38.822Z,47.38
2023-04-09T11:39:06.376Z,47.51
2023-04-09T11:41:34.718Z,48.48
2023-04-09T11:44:03.790Z,47.30
2023-04-09T11:46:31.481Z,46.61
2023-04-09T11:49:00.394Z,48.53
2023-04-09T11:51:28.564Z,47.86
2023-04-09T11:53:56.029Z,49.87
2023-04-09T11:56:23.706Z,49.48
2023-04-09T11:58:51.404Z,49.98
2023-04-09T12:01:19.092Z,49.30
2023-04-09T12:06:46.330Z,52.63
2023-04-09T12:09:14.198Z,50.30
2023-04-09T12:11:44.925Z,51.25
2023-04-09T12:14:13.833Z,52.17
2023-04-09T12:16:43.774Z,50.73
2023-04-09T12:22:15.336Z,49.98
2023-04-09T12:24:42.818Z,51.60
2023-04-09T12:27:10.876Z,53.35
2023-04-09T12:29:38.310Z,51.49
2023-04-09T12:32:06.331Z,53.09
2023-04-09T12:34:33.809Z,52.87
2023-04-09T12:37:01.483Z,50.60
2023-04-09T12:39:31.699Z,52.88
2023-04-09T12:42:01.069Z,53.46
2023-04-09T12:44:28.818Z,51.30
2023-04-09T12:46:56.265Z,52.73
2023-04-09T12:49:47.667Z,52.16
2023-04-09T12:52:15.497Z,52.73
2023-04-09T12:54:44.845Z,53.77
2023-04-09T12:57:12.268Z,52.89
2023-04-09T12:59:39.672Z,52.57
2023-04-09T13:02:07.715Z,52.38
2023-04-09T13:04:35.672Z,51.91
2023-04-09T13:07:03.266Z,52.09
2023-04-09T13:09:30.738Z,50.62
2023-04-09T13:11:59.492Z,50.60
2023-04-09T13:14:26.905Z,48.76
2023-04-09T13:16:54.457Z,48.73
2023-04-09T13:19:22.457Z,47.41
2023-04-09T13:21:49.851Z,47.40
2023-04-09T13:24:17.318Z,50.45
2023-04-09T13:30:25.665Z,42.27
2023-04-09T13:32:53.269Z,38.21
2023-04-09T13:36:39.103Z,37.85
2023-04-09T13:39:31.767Z,39.04
2023-04-09T13:42:49.860Z,40.86
2023-04-09T13:45:42.770Z,40.97
2023-04-09T13:48:35.839Z,38.65
2023-04-09T13:51:29.546Z,38.95
2023-04-09T13:54:23.318Z,40.19
2023-04-09T13:57:18.861Z,38.72
2023-04-09T14:00:12.611Z,39.65
2023-04-09T14:03:06.002Z,39.81
2023-04-09T14:05:58.595Z,39.17
2023-04-09T14:08:52.270Z,41.44
2023-04-09T14:11:46.146Z,40.59
2023-04-09T14:14:38.581Z,41.20
2023-04-09T14:17:31.850Z,42.36
2023-04-09T14:20:24.538Z,44.34
2023-04-09T14:23:27.090Z,44.53
2023-04-09T14:26:21.650Z,45.59
2023-04-09T14:29:18.077Z,45.77
2023-04-09T14:32:10.745Z,43.38
2023-04-09T14:35:03.677Z,42.80
2023-04-09T14:37:56.713Z,42.25
2023-04-09T14:44:20.185Z,40.19
2023-04-09T14:47:12.499Z,40.30
2023-04-09T14:50:04.980Z,42.76
2023-04-09T14:52:57.547Z,42.08
2023-04-09T14:55:50.975Z,45.20
2023-04-09T14:58:43.669Z,45.27
2023-04-09T15:01:38.207Z,45.11
2023-04-09T15:04:30.631Z,47.25
2023-04-09T15:07:25.166Z,48.71
2023-04-09T15:10:18.063Z,47.15
2023-04-09T15:13:10.787Z,47.17
2023-04-09T15:16:03.735Z,47.66
2023-04-09T15:18:59.844Z,48.24
2023-04-09T15:21:52.890Z,47.04
2023-04-09T15:24:45.547Z,46.58
2023-04-09T15:30:51.013Z,47.21
2023-04-09T15:36:58.089Z,48.53
2023-04-09T15:39:52.311Z,48.11
2023-04-09T15:42:39.050Z,48.04
2023-04-09T15:45:31.843Z,47.77
2023-04-09T15:48:24.870Z,48.20
2023-04-09T15:54:38.033Z,51.87
2023-04-09T15:57:30.679Z,53.08
2023-04-09T16:00:24.110Z,50.47
2023-04-09T16:03:16.732Z,51.75
2023-04-09T16:06:13.034Z,51.92
2023-04-09T16:12:19.322Z,51.01
2023-04-09T16:15:11.871Z,50.83
2023-04-09T16:18:11.569Z,52.40
2023-04-09T16:21:05.687Z,51.19
2023-04-09T16:24:15.916Z,51.44
2023-04-09T16:27:05.743Z,50.21
2023-04-09T16:33:20.997Z,47.16
2023-04-09T16:39:38.798Z,47.78
2023-04-09T16:42:32.678Z,50.59
2023-04-09T16:45:25.518Z,49.07
2023-04-09T16:48:18.039Z,50.28
2023-04-09T16:51:11.854Z,49.68
2023-04-09T16:54:04.523Z,47.68
2023-04-09T16:56:57.137Z,48.10
2023-04-09T16:59:49.601Z,49.99
2023-04-09T17:02:42.712Z,48.90
2023-04-09T17:05:36.024Z,49.84
2023-04-09T17:11:38.323Z,53.94
2023-04-09T17:14:31.573Z,54.67
2023-04-09T17:17:24.775Z,56.99
2023-04-09T17:20:17.873Z,59.36
2023-04-09T17:23:26.018Z,60.59
2023-04-09T17:26:19.286Z,62.70
2023-04-09T17:29:11.561Z,64.02
2023-04-09T17:32:04.744Z,65.60
2023-04-09T17:35:07.401Z,67.13
2023-04-09T17:37:59.706Z,67.85
2023-04-09T17:40:54.098Z,67.92
2023-04-09T17:43:47.778Z,69.13
2023-04-09T17:46:40.788Z,70.22
2023-04-09T17:49:34.024Z,70.83
2023-04-09T17:52:26.613Z,69.88
2023-04-09T17:55:19.908Z,70.35
2023-04-09T18:01:35.065Z,73.26
2023-04-09T18:04:28.024Z,73.52
2023-04-09T18:07:21.434Z,73.71
2023-04-09T18:10:13.654Z,74.45
2023-04-09T18:13:06.969Z,74.01
2023-04-09T18:15:59.708Z,75.26
2023-04-09T18:18:47.794Z,76.85
2023-04-09T18:21:40.959Z,78.08
2023-04-09T18:24:34.432Z,80.41
2023-04-09T18:27:26.781Z,81.03
2023-04-09T18:30:19.437Z,80.77
2023-04-09T18:33:15.657Z,80.93
2023-04-09T18:36:10.200Z,81.52
2023-04-09T18:42:51.610Z,83.92
2023-04-09T18:45:56.088Z,83.19
2023-04-09T18:48:48.806Z,83.52
2023-04-09T18:55:04.557Z,84.56
2023-04-09T19:01:43.670Z,85.55
2023-04-09T19:04:39.819Z,85.56
2023-04-09T19:07:33.588Z,86.10
2023-04-09T19:10:28.111Z,86.06
2023-04-09T19:13:20.702Z,85.93
2023-04-09T19:16:22.459Z,86.86
2023-04-09T19:19:14.583Z,86.73
2023-04-09T19:22:07.846Z,86.90
2023-04-09T19:25:00.643Z,87.21
2023-04-09T19:27:56.428Z,87.36
2023-04-09T19:30:50.622Z,87.13
2023-04-09T19:36:56.319Z,87.46
2023-04-09T19:43:06.340Z,88.79
2023-04-09T19:49:15.633Z,89.91
2023-04-09T19:52:09.190Z,90.04
2023-04-09T19:54:57.698Z,89.41
2023-04-09T19:57:50.646Z,89.83
2023-04-09T20:00:45.049Z,90.69
2023-04-09T20:03:37.747Z,91.04
2023-04-09T20:06:30.704Z,91.22
2023-04-09T20:09:26.275Z,91.00
2023-04-09T20:12:55.926Z,91.02
2023-04-09T20:15:52.633Z,91.60
2023-04-09T20:19:01.216Z,90.73
2023-04-09T20:21:52.722Z,90.94
2023-04-09T20:28:09.698Z,90.47
2023-04-09T20:34:29.182Z,90.05
2023-04-09T20:40:47.008Z,89.51
2023-04-09T20:46:48.498Z,90.92
2023-04-09T20:52:59.315Z,92.33
2023-04-09T20:59:04.037Z,93.08
2023-04-09T21:05:22.411Z,93.86
2023-04-09T21:08:16.923Z,92.65
2023-04-09T21:11:09.980Z,93.66
2023-04-09T21:14:06.978Z,92.77
2023-04-09T21:16:59.732Z,93.11
2023-04-09T21:19:53.451Z,94.47
2023-04-09T21:22:46.098Z,94.69
2023-04-09T21:25:40.814Z,94.35
2023-04-09T21:28:33.374Z,93.76
2023-04-09T21:31:25.903Z,92.85
2023-04-09T21:34:18.453Z,92.65
2023-04-09T21:37:11.159Z,92.41
2023-04-09T21:43:17.376Z,92.44
2023-04-09T21:46:09.785Z,91.69
2023-04-09T21:52:32.194Z,94.42
2023-04-09T21:55:42.109Z,94.19
2023-04-09T21:58:32.906Z,93.78
2023-04-09T22:05:12.083Z,95.75
2023-04-09T22:08:04.378Z,95.20
2023-04-09T22:10:56.826Z,95.10
2023-04-09T22:13:51.437Z,94.73
2023-04-09T22:16:47.516Z,94.74
2023-04-09T22:19:39.457Z,95.03
2023-04-09T22:26:00.003Z,94.57
2023-04-09T22:28:54.119Z,94.76
2023-04-09T22:31:46.735Z,95.48
2023-04-09T22:34:44.822Z,95.90
2023-04-09T22:37:37.590Z,95.29
2023-04-09T22:44:01.135Z,94.84
2023-04-09T22:46:53.853Z,94.24
2023-04-09T22:49:46.815Z,93.30
2023-04-09T22:52:39.833Z,92.80
2023-04-09T22:55:32.454Z,93.18
2023-04-09T22:58:24.572Z,93.25
2023-04-09T23:01:54.028Z,94.67
2023-04-09T23:04:47.941Z,94.17
2023-04-09T23:07:42.620Z,93.60
2023-04-09T23:14:11.502Z,94.43
2023-04-09T23:17:03.600Z,94.43
2023-04-09T23:19:58.260Z,94.80
2023-04-09T23:22:51.099Z,95.15
2023-04-09T23:25:46.207Z,95.33
2023-04-09T23:28:38.847Z,96.77
2023-04-09T23:31:31.956Z,97.56
2023-04-09T23:34:24.689Z,97.48
2023-04-09T23:37:12.153Z,95.97
2023-04-09T23:40:15.147Z,96.75
2023-04-09T23:43:02.093Z,97.83
2023-04-09T23:48:59.006Z,97.56
2023-04-09T23:55:00.402Z,96.57
